Aplicació Alertes

Dades de l'estació automàtica Sant Pau de Segúries

?
?
Resum diari 22:30 TU
Dades diàries de l'estació meteorològica
Temperatura mitjana -1.0 °C
Temperatura màxima 7.1 °C 11:29 TU
Temperatura mínima -6.0 °C 4:53 TU
Humitat relativa mitjana 67%
Precipitació acumulada 0.0 mm
Ratxa màxima del vent (10 m) 35.3 km/h - 325º 7:19 TU
Pressió atmosfèrica mitjana 1028.0 hPa

El tram horari està expressat en Temps Universal (TU). Cal sumar una hora en horari d'hivern i dues en horari d'estiu per passar a l'hora oficial.

Sant Pau de Segúries

Metadades estació meteorol´gica
Municipi Sant Pau de Segúries
Comarca Ripollès
Altitud 852 m
Data alta 24.11.1995
Estat actual Operativa
Dades de període
Període
TU
TM
°C
TX
°C
TN
°C
HRM
%
PPT
mm
VVM (10 m)
km/h
DVM (10 m)
graus
VVX (10 m)
km/h
PM
hPa
00:00 - 00:30 -3.6 -3.1 -4.1 75 0.0 2.2 203 6.8 1025.4
00:30 - 01:00 -3.9 -3.8 -4.1 79 0.0 2.2 221 9.0 1025.5
01:00 - 01:30 -3.4 -3.2 -3.6 76 0.0 3.6 203 8.6 1025.3
01:30 - 02:00 -3.5 -3.2 -3.6 77 0.0 4.7 271 12.2 1025.8
02:00 - 02:30 -4.0 -3.7 -4.4 79 0.0 1.8 159 5.8 1026.3
02:30 - 03:00 -4.6 -4.2 -5.2 82 0.0 2.9 83 7.2 1026.8
03:00 - 03:30 -4.8 -3.9 -5.2 82 0.0 4.7 214 10.1 1026.8
03:30 - 04:00 -4.2 -3.6 -4.9 75 0.0 3.6 179 11.2 1026.8
04:00 - 04:30 -5.3 -4.9 -5.6 81 0.0 2.2 218 5.8 1027.4
04:30 - 05:00 -5.6 -5.0 -6.0 82 0.0 4.0 202 15.1 1027.8
05:00 - 05:30 -4.0 -3.6 -4.3 69 0.0 6.5 208 17.6 1027.6
05:30 - 06:00 -3.9 -3.1 -4.6 68 0.0 5.8 212 14.0 1027.5
06:00 - 06:30 -3.4 -2.6 -4.0 64 0.0 2.9 221 10.8 1027.7
06:30 - 07:00 -0.8 2.0 -4.2 52 0.0 7.2 321 28.1 1026.9
07:00 - 07:30 2.2 3.3 1.1 39 0.0 8.6 322 35.3 1025.7
07:30 - 08:00 -0.7 3.4 -2.1 50 0.0 7.6 225 23.8 1027.3
08:00 - 08:30 -2.6 -2.1 -2.8 60 0.0 6.5 230 15.1 1028.5
08:30 - 09:00 -2.3 -1.8 -3.0 60 0.0 7.2 215 21.2 1028.6
09:00 - 09:30 -0.6 1.2 -1.8 55 0.0 6.5 221 14.8 1028.1
09:30 - 10:00 1.7 2.4 1.0 47 0.0 6.8 226 15.5 1027.3
10:00 - 10:30 3.3 4.9 1.9 42 0.0 6.1 204 15.5 1026.8
10:30 - 11:00 5.6 6.1 5.0 35 0.0 5.4 226 16.2 1026.1
11:00 - 11:30 5.9 7.1 5.2 34 0.0 4.7 241 11.9 1025.8
11:30 - 12:00 6.0 7.1 4.6 37 0.0 5.0 214 11.5 1025.5
12:00 - 12:30 3.7 6.3 2.7 49 0.0 4.0 196 8.6 1026.2
12:30 - 13:00 3.6 4.4 3.0 48 0.0 6.1 224 14.8 1026.1
13:00 - 13:30 3.5 4.1 2.9 51 0.0 2.9 191 11.2 1026.0
13:30 - 14:00 2.8 3.2 2.3 56 0.0 2.5 191 10.8 1026.1
14:00 - 14:30 2.8 3.2 2.3 55 0.0 3.6 210 8.6 1026.2
14:30 - 15:00 2.1 2.6 1.6 62 0.0 0.7 187 5.4 1026.8
15:00 - 15:30 2.5 3.1 2.0 60 0.0 0.7 165 6.5 1027.0
15:30 - 16:00 1.7 2.4 1.1 64 0.0 0.7 162 4.0 1027.5
16:00 - 16:30 0.6 1.2 -0.1 68 0.0 0.7 149 3.2 1028.2
16:30 - 17:00 -0.2 0.3 -0.7 73 0.0 1.4 120 6.1 1028.7
17:00 - 17:30 -1.1 -0.8 -1.4 78 0.0 1.8 60 5.0 1029.3
17:30 - 18:00 -1.2 -0.8 -1.5 76 0.0 2.5 99 7.2 1029.6
18:00 - 18:30 -1.6 -1.2 -2.3 77 0.0 2.9 135 7.2 1030.1
18:30 - 19:00 -2.3 -1.8 -2.6 82 0.0 2.2 50 7.2 1030.8
19:00 - 19:30 -2.3 -1.7 -2.6 81 0.0 2.5 207 6.8 1031.2
19:30 - 20:00 -2.6 -2.1 -2.9 82 0.0 3.6 219 11.2 1031.5
20:00 - 20:30 -2.9 -2.4 -3.4 84 0.0 2.5 203 6.8 1031.7
20:30 - 21:00 -3.4 -3.2 -3.7 86 0.0 2.5 345 5.8 1031.9
21:00 - 21:30 -4.1 -3.7 -4.4 88 0.0 2.2 201 8.6 1032.4
21:30 - 22:00 -3.5 -3.2 -3.8 86 0.0 2.9 173 7.6 1032.4
22:00 - 22:30 -4.0 -3.8 -4.3 88 0.0 2.2 136 5.4 1032.9
22:30 - 23:00 -3.8 -3.6 -4.0 87 0.0 3.2 351 11.5 1033.1

Les dades en taronja només han passat un control de qualitat automàtic. Resta pendent la seva validació definitiva.